createdAt,value
2022-08-12T00:00:46.805Z,2.00
2022-08-12T00:06:11.503Z,2.65
2022-08-12T00:11:36.087Z,2.67
2022-08-12T00:17:00.994Z,1.60
2022-08-12T00:22:25.828Z,1.40
2022-08-12T00:27:52.853Z,1.75
2022-08-12T00:33:17.653Z,1.25
2022-08-12T00:38:41.747Z,1.20
2022-08-12T00:43:50.219Z,1.60
2022-08-12T01:02:49.999Z,2.10
2022-08-12T01:08:15.815Z,1.77
2022-08-12T01:13:23.847Z,2.83
2022-08-12T01:18:33.102Z,1.98
2022-08-12T01:23:57.610Z,3.35
2022-08-12T01:29:05.702Z,4.20
2022-08-12T01:34:28.557Z,3.92
2022-08-12T01:40:35.109Z,6.30
2022-08-12T01:45:26.093Z,5.55
2022-08-12T01:50:48.790Z,6.20
2022-08-12T01:55:56.475Z,6.00
2022-08-12T02:01:11.062Z,6.28
2022-08-12T02:24:40.300Z,8.15
2022-08-12T02:29:46.573Z,9.27
2022-08-12T02:34:53.894Z,9.02
2022-08-12T02:40:02.862Z,14.65
2022-08-12T02:45:11.049Z,7.43
2022-08-12T02:50:22.130Z,7.78
2022-08-12T02:55:34.823Z,6.82
2022-08-12T03:00:50.336Z,7.30
2022-08-12T03:06:41.320Z,5.75
2022-08-12T03:18:25.472Z,6.47
2022-08-12T03:24:44.061Z,5.00
2022-08-12T03:29:53.458Z,8.20
2022-08-12T03:35:04.122Z,9.13
2022-08-12T03:40:30.542Z,10.35
2022-08-12T03:45:55.198Z,11.68
2022-08-12T03:51:22.465Z,9.05
2022-08-12T03:56:49.284Z,10.87
2022-08-12T04:01:59.633Z,11.93
2022-08-12T04:07:24.878Z,15.65
2022-08-12T04:12:50.883Z,16.27
2022-08-12T04:18:11.467Z,24.15
2022-08-12T04:30:30.176Z,21.35
2022-08-12T04:35:57.804Z,20.63
2022-08-12T04:41:04.820Z,17.23
2022-08-12T04:46:14.059Z,16.50
2022-08-12T04:51:24.968Z,12.73
2022-08-12T05:08:39.711Z,15.88
2022-08-12T05:13:48.905Z,19.20
2022-08-12T05:18:58.840Z,18.17
2022-08-12T05:24:26.779Z,16.90
2022-08-12T05:30:07.086Z,15.18
2022-08-12T05:40:11.039Z,12.52
2022-08-12T05:45:17.575Z,14.32
2022-08-12T05:55:31.376Z,14.60
2022-08-12T06:00:38.866Z,15.52
2022-08-12T06:05:54.275Z,13.45
2022-08-12T06:11:00.850Z,16.35
2022-08-12T06:16:08.878Z,14.60
2022-08-12T06:21:23.255Z,17.33
2022-08-12T06:26:28.877Z,19.15
2022-08-12T06:31:36.328Z,35.90
2022-08-12T06:36:49.447Z,23.67
2022-08-12T06:42:33.250Z,16.98
2022-08-12T06:47:40.170Z,15.27
2022-08-12T06:52:47.204Z,15.10
2022-08-12T06:58:07.256Z,16.05
2022-08-12T07:03:23.769Z,20.52
2022-08-12T07:08:31.961Z,17.52
2022-08-12T07:14:10.238Z,18.05
2022-08-12T07:19:49.007Z,15.98
2022-08-12T07:31:44.997Z,16.95
2022-08-12T07:37:22.445Z,18.33
2022-08-12T07:42:54.790Z,17.88
2022-08-12T07:48:38.891Z,19.33
2022-08-12T08:00:07.922Z,16.83
2022-08-12T08:12:04.845Z,18.38
2022-08-12T08:17:12.076Z,18.50
2022-08-12T08:22:17.882Z,21.20
2022-08-12T08:34:09.082Z,18.67
2022-08-12T08:39:23.322Z,21.52
2022-08-12T08:44:38.974Z,21.83
2022-08-12T08:49:48.577Z,21.55
2022-08-12T08:55:01.175Z,22.33
2022-08-12T09:00:07.891Z,19.40
2022-08-12T09:05:24.896Z,20.20
2022-08-12T09:23:57.859Z,22.20
2022-08-12T09:29:12.340Z,16.38
2022-08-12T09:34:27.449Z,25.00
2022-08-12T09:40:01.370Z,23.33
2022-08-12T09:46:06.382Z,24.95
2022-08-12T09:50:55.387Z,16.83
2022-08-12T09:57:00.081Z,22.08
2022-08-12T10:01:35.042Z,18.38
2022-08-12T10:07:12.971Z,15.43
2022-08-12T10:13:07.317Z,20.77
2022-08-12T10:18:16.696Z,23.27
2022-08-12T10:23:40.155Z,29.38
2022-08-12T10:30:02.163Z,23.70
2022-08-12T10:34:31.658Z,20.35
2022-08-12T10:40:01.780Z,22.52
2022-08-12T10:52:05.423Z,21.40
2022-08-12T10:56:37.706Z,27.23
2022-08-12T11:04:19.582Z,24.80
2022-08-12T11:08:33.860Z,25.67
2022-08-12T11:13:00.046Z,25.55
2022-08-12T11:25:24.562Z,24.60
2022-08-12T11:30:50.374Z,23.75
2022-08-12T11:36:15.934Z,26.45
2022-08-12T11:41:31.293Z,27.27
2022-08-12T11:51:57.534Z,30.85
2022-08-12T11:58:34.067Z,31.42
2022-08-12T12:02:30.617Z,29.00
2022-08-12T12:08:37.187Z,33.80
2022-08-12T12:13:23.031Z,38.63
2022-08-12T12:32:10.538Z,34.75
2022-08-12T12:37:05.025Z,33.17
2022-08-12T12:42:55.489Z,38.45
2022-08-12T12:52:43.654Z,36.05
2022-08-12T12:57:59.242Z,31.08
2022-08-12T13:03:05.834Z,32.42
2022-08-12T13:08:28.437Z,33.57
2022-08-12T13:14:10.323Z,31.73
2022-08-12T13:19:07.777Z,31.83
2022-08-12T13:24:14.021Z,30.92
2022-08-12T13:29:20.267Z,35.55
2022-08-12T13:48:00.045Z,32.17
2022-08-12T13:53:24.173Z,33.45
2022-08-12T13:58:34.882Z,37.35
2022-08-12T14:03:50.263Z,34.22
2022-08-12T14:08:58.073Z,40.17
2022-08-12T14:14:12.755Z,40.60
2022-08-12T14:19:25.123Z,31.35
2022-08-12T14:24:36.533Z,35.78
2022-08-12T14:30:05.450Z,38.50
2022-08-12T14:41:24.202Z,38.97
2022-08-12T14:46:45.947Z,44.30
2022-08-12T14:53:03.385Z,40.45
2022-08-12T14:57:23.494Z,36.55
2022-08-12T15:02:31.245Z,36.13
2022-08-12T15:07:49.502Z,31.10
2022-08-12T15:12:59.900Z,33.58
2022-08-12T15:18:06.836Z,31.17
2022-08-12T15:23:17.890Z,30.77
2022-08-12T15:28:29.348Z,30.75
2022-08-12T15:33:46.152Z,24.55
2022-08-12T15:38:52.102Z,32.58
2022-08-12T15:44:36.785Z,31.80
2022-08-12T15:49:55.087Z,27.83
2022-08-12T15:54:52.939Z,23.10
2022-08-12T16:00:09.364Z,28.65
2022-08-12T16:06:11.686Z,30.80
2022-08-12T16:10:59.711Z,24.67
2022-08-12T16:16:22.695Z,26.77
2022-08-12T16:21:52.593Z,34.25
2022-08-12T16:26:59.519Z,29.58
2022-08-12T16:32:06.892Z,31.92
2022-08-12T16:37:32.558Z,34.00
2022-08-12T16:42:53.736Z,35.43
2022-08-12T16:48:10.462Z,31.15
2022-08-12T16:53:43.761Z,40.13
2022-08-12T16:58:52.217Z,37.10
2022-08-12T17:04:10.182Z,50.95
2022-08-12T17:09:18.911Z,41.20
2022-08-12T17:14:25.069Z,40.05
2022-08-12T17:20:29.668Z,35.05
2022-08-12T17:25:14.746Z,33.92
2022-08-12T17:30:21.065Z,34.15
2022-08-12T17:35:36.775Z,34.25
2022-08-12T17:45:54.997Z,32.47
2022-08-12T17:51:02.822Z,34.67
2022-08-12T17:56:09.655Z,31.88
2022-08-12T18:01:19.094Z,33.75
2022-08-12T18:06:27.963Z,31.73
2022-08-12T18:12:06.247Z,32.75
2022-08-12T18:17:19.488Z,35.10
2022-08-12T18:22:30.697Z,36.30
2022-08-12T18:27:43.728Z,38.60
2022-08-12T18:32:58.400Z,40.25
2022-08-12T18:38:06.645Z,38.85
2022-08-12T18:43:14.924Z,40.20
2022-08-12T18:48:25.627Z,38.03
2022-08-12T18:54:07.068Z,37.15
2022-08-12T18:59:02.079Z,36.78
2022-08-12T19:04:10.954Z,39.40
2022-08-12T19:09:18.920Z,38.17
2022-08-12T19:14:27.845Z,39.13
2022-08-12T19:19:42.010Z,40.05
2022-08-12T19:25:07.635Z,40.40
2022-08-12T19:30:34.262Z,39.17
2022-08-12T19:36:24.116Z,37.10
2022-08-12T19:41:13.827Z,37.88
2022-08-12T19:46:34.481Z,40.30
2022-08-12T19:51:45.900Z,38.92
2022-08-12T19:56:55.928Z,38.90
2022-08-12T20:02:05.121Z,37.38
2022-08-12T20:07:23.599Z,41.13
2022-08-12T20:12:34.773Z,37.85
2022-08-12T20:17:50.364Z,37.03
2022-08-12T20:22:59.222Z,37.88
2022-08-12T20:28:06.477Z,43.00
2022-08-12T20:33:17.566Z,39.85
2022-08-12T20:38:26.384Z,42.72
2022-08-12T20:43:33.890Z,39.30
2022-08-12T20:48:42.009Z,40.38
2022-08-12T20:53:58.241Z,41.00
2022-08-12T20:59:14.882Z,41.47
2022-08-12T21:04:45.497Z,37.90
2022-08-12T21:09:53.111Z,38.80
2022-08-12T21:15:16.613Z,39.45
2022-08-12T21:20:31.568Z,42.00
2022-08-12T21:25:45.075Z,41.63
2022-08-12T21:31:10.750Z,43.63
2022-08-12T21:36:22.733Z,43.05
2022-08-12T21:41:39.600Z,41.70
2022-08-12T21:46:53.408Z,42.75
2022-08-12T21:52:01.785Z,42.25
2022-08-12T21:57:09.001Z,40.40
2022-08-12T22:02:34.752Z,44.45
2022-08-12T22:07:54.907Z,47.23
2022-08-12T22:13:01.803Z,53.88
2022-08-12T22:18:09.471Z,56.95
2022-08-12T22:23:21.759Z,58.90
2022-08-12T22:28:57.335Z,54.40
2022-08-12T22:34:03.469Z,58.78
2022-08-12T22:39:15.695Z,63.45
2022-08-12T22:44:54.043Z,56.58
2022-08-12T22:50:06.701Z,57.58
2022-08-12T22:55:19.050Z,60.55
2022-08-12T23:00:52.727Z,64.43
2022-08-12T23:06:10.335Z,55.90
2022-08-12T23:11:17.403Z,54.67
2022-08-12T23:16:33.439Z,59.10
2022-08-12T23:22:06.512Z,55.97
2022-08-12T23:27:44.221Z,55.88
2022-08-12T23:32:54.823Z,55.83
2022-08-12T23:38:06.227Z,57.25
2022-08-12T23:43:12.599Z,56.22
2022-08-12T23:48:23.189Z,58.97
2022-08-12T23:53:37.577Z,52.25
2022-08-12T23:58:58.554Z,50.72
